RJCK

Kushiro Airport

Kushiro, Japan
TAF RJCK 251712Z 2518/2700 36012KT 9999 FEW006 BKN015 TEMPO 2518/2521 3000 BR FEW003 BKN006 BECMG 2601/2603 30013KT TEMPO 2603/2606 30016G26KT BECMG 2606/2609 22008KT
Issued Valid From Valid To
Apr-25 @ 17:12 UTC
(an hour ago)
Apr-25 @ 18:00 UTC
(17 minutes ago)
Apr-27 @ 00:00 UTC
(-1 days ago)
Apr-25 @ 18:00 to Apr-26 @ 01:00
TAF RJCK 251712Z 2518/2700 36012KT 9999 FEW006 BKN015
Wind Visibility Clouds
360° at 12 knots 10,000+ meters
  • Few at 600' AGL
  • Broken at 1,500' AGL
Temporary Apr-25 @ 18:00 to Apr-25 @ 21:00
TEMPO 2518/2521 3000 BR FEW003 BKN006
Visibility Clouds Conditions
2,993 meters
  • Few at 300' AGL
  • Broken at 600' AGL
  • Mist
Becoming Apr-26 @ 01:00 to Apr-26 @ 06:00
BECMG 2601/2603 30013KT
Wind Visibility Clouds
300° at 13 knots 10,000+ meters
  • Few at 600' AGL
  • Broken at 1,500' AGL
Temporary Apr-26 @ 03:00 to Apr-26 @ 06:00
TEMPO 2603/2606 30016G26KT
Wind
300° at 16 knots
 Gusting to 26 knots
Becoming Apr-26 @ 06:00 to Apr-27 @ 00:00
BECMG 2606/2609 22008KT
Wind Visibility Clouds
220° at 8 knots 10,000+ meters
  • Few at 600' AGL
  • Broken at 1,500' AGL
TAF RJCK 251712Z 2518/2700 36012KT 9999 FEW006 BKN015 TEMPO 2518/2521 3000 BR FEW003 BKN006 BECMG 2601/2603 30013KT TEMPO 2603/2606 30016G26KT BECMG 2606/2609 22008KT
Issued Apr-25 @ 17:12 UTC
(an hour ago)
Valid From Apr-25 @ 18:00 UTC
(17 minutes ago)
Valid To Apr-27 @ 00:00 UTC
(-1 days ago)
Apr-25 @ 18:00 - Apr-26 @ 01:00
Wind Visibility
360° at 12 knots 10,000+ meters
Clouds
  • Few at 600' AGL
  • Broken at 1,500' AGL
Temporary Apr-25 @ 18:00 - Apr-25 @ 21:00
Clouds
  • Few at 300' AGL
  • Broken at 600' AGL
Conditions
  • Mist
Becoming Apr-26 @ 01:00 - Apr-26 @ 06:00
Wind Visibility
300° at 13 knots 10,000+ meters
Clouds
  • Few at 600' AGL
  • Broken at 1,500' AGL
Temporary Apr-26 @ 03:00 - Apr-26 @ 06:00
Wind
300° at 16 knots
 Gusting to 26 knots
Becoming Apr-26 @ 06:00 - Apr-27 @ 00:00
Wind Visibility
220° at 8 knots 10,000+ meters
Clouds
  • Few at 600' AGL
  • Broken at 1,500' AGL